Time;durP1;ratioP1;P1;durP2;ratioP2;P2;SDS_P1;SDS_P2;PMS_P1;PMS_P2;Temp;Humidity;BMP_temperature;BMP_pressure;BME280_temperature;BME280_humidity;BME280_pressure;Samples;Min_cycle;Max_cycle;Signal;HPM_P1;HPM_P2
2021/12/09 00:02:06;;;;;;;11.80;6.27;;;2.10;99.90;;;;;;4699098;30;20053;-83
2021/12/09 00:04:31;;;;;;;10.50;6.00;;;2.10;99.90;;;;;;4699440;30;20380;-83
2021/12/09 00:07:00;;;;;;;11.83;6.57;;;2.10;99.90;;;;;;4699705;30;20057;-83
2021/12/09 00:09:26;;;;;;;12.47;6.37;;;2.00;99.90;;;;;;4683363;30;20049;-83
2021/12/09 00:11:52;;;;;;;11.90;5.97;;;2.10;99.90;;;;;;4684362;30;20570;-83
2021/12/09 00:14:20;;;;;;;16.43;6.40;;;2.00;99.90;;;;;;4681325;30;20140;-83
2021/12/09 00:16:47;;;;;;;12.57;6.43;;;2.00;99.90;;;;;;4701773;30;20049;-82
2021/12/09 00:19:13;;;;;;;11.60;6.43;;;1.90;99.90;;;;;;4695786;30;20059;-83
2021/12/09 00:21:39;;;;;;;12.70;6.47;;;1.90;99.90;;;;;;4699224;30;20053;-83
2021/12/09 00:24:05;;;;;;;13.03;6.53;;;1.90;99.90;;;;;;4705368;30;20049;-83
2021/12/09 00:26:31;;;;;;;9.97;5.97;;;1.80;99.90;;;;;;4719422;30;20056;-83
2021/12/09 00:28:57;;;;;;;13.37;6.40;;;1.80;99.90;;;;;;4704856;30;20135;-83
2021/12/09 00:31:23;;;;;;;11.97;6.50;;;1.70;99.90;;;;;;4719572;30;20061;-83
2021/12/09 00:33:49;;;;;;;14.93;7.07;;;1.70;99.90;;;;;;4705107;30;20140;-83
2021/12/09 00:36:26;;;;;;;12.80;7.20;;;1.70;99.90;;;;;;4690943;30;20049;-83
2021/12/09 00:38:54;;;;;;;9.90;6.80;;;1.70;99.90;;;;;;4719449;30;20060;-83
2021/12/09 00:41:20;;;;;;;11.10;6.90;;;1.70;99.90;;;;;;4714095;30;20436;-83
2021/12/09 00:43:46;;;;;;;16.83;6.90;;;1.70;99.90;;;;;;4690497;30;20049;-83
2021/12/09 00:46:11;;;;;;;12.53;6.97;;;1.70;99.90;;;;;;4694269;30;20050;-83
2021/12/09 00:48:38;;;;;;;14.63;6.90;;;1.70;99.90;;;;;;4670352;30;20065;-83
2021/12/09 00:51:05;;;;;;;12.17;7.17;;;1.70;99.90;;;;;;4655770;30;20092;-83
2021/12/09 00:53:31;;;;;;;16.37;7.47;;;1.70;99.90;;;;;;4655975;30;20155;-83
2021/12/09 00:55:57;;;;;;;17.90;8.23;;;1.80;99.90;;;;;;4670179;30;20049;-83
2021/12/09 00:58:23;;;;;;;13.80;6.73;;;1.80;99.90;;;;;;4656160;30;20199;-83
2021/12/09 01:00:49;;;;;;;12.10;7.63;;;1.80;99.90;;;;;;4655849;30;20507;-83
2021/12/09 01:03:16;;;;;;;11.73;7.40;;;1.80;99.90;;;;;;4670388;30;20058;-83
2021/12/09 01:05:44;;;;;;;19.03;8.13;;;1.80;99.90;;;;;;4684176;30;20496;-83
2021/12/09 01:08:11;;;;;;;13.50;7.03;;;1.80;99.90;;;;;;4684048;30;20077;-83
2021/12/09 01:10:36;;;;;;;10.90;7.20;;;1.80;99.90;;;;;;4686079;30;20050;-82
2021/12/09 01:13:03;;;;;;;13.27;7.07;;;1.80;99.90;;;;;;4718260;30;20045;-82
2021/12/09 01:15:29;;;;;;;12.97;7.70;;;1.70;99.90;;;;;;4695727;30;20049;-83
2021/12/09 01:17:55;;;;;;;13.10;7.47;;;1.70;99.90;;;;;;4683065;30;20107;-82
2021/12/09 01:20:26;;;;;;;10.53;7.07;;;1.70;99.90;;;;;;4683978;30;20046;-82
2021/12/09 01:22:58;;;;;;;9.43;7.17;;;1.70;99.90;;;;;;4669873;30;20054;-82
2021/12/09 01:25:26;;;;;;;13.40;7.90;;;1.70;99.90;;;;;;4683886;30;20050;-82
2021/12/09 01:27:55;;;;;;;11.87;7.30;;;1.70;99.90;;;;;;4687082;30;20601;-81
2021/12/09 01:30:23;;;;;;;14.43;7.40;;;1.70;99.90;;;;;;4689620;30;20477;-82
2021/12/09 01:32:54;;;;;;;11.63;7.60;;;1.60;99.90;;;;;;4686713;30;20114;-82
2021/12/09 01:35:33;;;;;;;15.27;8.10;;;1.60;99.90;;;;;;4704049;30;20056;-82
2021/12/09 01:38:07;;;;;;;14.07;7.70;;;1.60;99.90;;;;;;4684208;30;20049;-83
2021/12/09 01:40:33;;;;;;;15.70;8.43;;;1.60;99.90;;;;;;4683747;30;20054;-82
2021/12/09 01:42:59;;;;;;;15.13;8.30;;;1.60;99.90;;;;;;4655298;30;20046;-83
2021/12/09 01:45:26;;;;;;;13.33;7.87;;;1.60;99.90;;;;;;4663897;30;20045;-83
2021/12/09 01:47:52;;;;;;;16.90;9.00;;;1.80;99.90;;;;;;4693458;30;20395;-82
2021/12/09 01:50:18;;;;;;;16.83;8.30;;;1.70;99.90;;;;;;4717864;30;20107;-83
2021/12/09 01:52:44;;;;;;;14.73;8.53;;;1.70;99.90;;;;;;4713304;30;20125;-83
2021/12/09 01:55:11;;;;;;;16.17;8.60;;;1.70;99.90;;;;;;4700558;30;20132;-82
2021/12/09 01:57:37;;;;;;;14.67;8.63;;;1.70;99.90;;;;;;4686139;30;20078;-82
2021/12/09 02:00:13;;;;;;;16.83;8.63;;;1.70;99.90;;;;;;4700555;30;20462;-83
2021/12/09 02:02:43;;;;;;;15.60;8.70;;;1.70;99.90;;;;;;4686600;30;20521;-82
2021/12/09 02:05:11;;;;;;;17.43;8.40;;;1.80;99.90;;;;;;4688364;30;20537;-82
2021/12/09 02:07:37;;;;;;;15.70;8.83;;;1.70;99.90;;;;;;4714736;30;20124;-83
2021/12/09 02:10:07;;;;;;;12.13;8.30;;;1.70;99.90;;;;;;4702921;30;20076;-82
2021/12/09 02:12:33;;;;;;;16.87;9.33;;;1.70;99.90;;;;;;4718194;30;20057;-82
2021/12/09 02:15:00;;;;;;;14.67;9.03;;;1.60;99.90;;;;;;4703905;30;20056;-82
2021/12/09 02:17:31;;;;;;;17.37;8.90;;;1.60;99.90;;;;;;4686359;30;20046;-82
2021/12/09 02:19:59;;;;;;;16.50;9.53;;;1.60;99.90;;;;;;4694880;30;20049;-82
2021/12/09 02:22:27;;;;;;;13.83;8.57;;;1.60;99.90;;;;;;4717654;30;20045;-82
2021/12/09 02:24:54;;;;;;;14.70;9.57;;;1.60;99.90;;;;;;4716825;30;20355;-83
2021/12/09 02:27:22;;;;;;;12.47;8.93;;;1.50;99.90;;;;;;4671451;30;20137;-83
2021/12/09 02:29:48;;;;;;;17.20;9.03;;;1.50;99.90;;;;;;4685974;30;20399;-83
2021/12/09 02:32:14;;;;;;;15.30;9.43;;;1.50;99.90;;;;;;4686163;30;20495;-82
2021/12/09 02:34:40;;;;;;;18.77;10.00;;;1.60;99.90;;;;;;4689562;30;20041;-83
2021/12/09 02:37:08;;;;;;;19.40;9.77;;;1.60;99.90;;;;;;4703752;30;20045;-82
2021/12/09 02:39:34;;;;;;;18.97;10.23;;;1.60;99.90;;;;;;4697193;30;20053;-83
2021/12/09 02:42:00;;;;;;;14.50;9.47;;;1.60;99.90;;;;;;4702920;30;20049;-83
2021/12/09 02:44:27;;;;;;;16.07;9.87;;;1.60;99.90;;;;;;4674510;30;20110;-82
2021/12/09 02:46:55;;;;;;;17.90;9.97;;;1.60;99.90;;;;;;4702743;30;20045;-82
2021/12/09 02:49:23;;;;;;;17.57;10.53;;;1.50;99.90;;;;;;4671885;30;20061;-82
2021/12/09 02:51:50;;;;;;;17.43;9.80;;;1.50;99.90;;;;;;4699717;30;20490;-82
2021/12/09 02:54:18;;;;;;;15.23;9.87;;;1.50;99.90;;;;;;4699872;30;20411;-82
2021/12/09 02:56:47;;;;;;;17.43;10.20;;;1.50;99.90;;;;;;4693563;30;20050;-82
2021/12/09 02:59:13;;;;;;;19.20;10.23;;;1.50;99.90;;;;;;4696437;30;20384;-82
2021/12/09 03:01:49;;;;;;;19.80;11.17;;;1.40;99.90;;;;;;4697572;30;20137;-83
2021/12/09 03:04:15;;;;;;;16.53;10.50;;;1.50;99.90;;;;;;4697264;30;20105;-82
2021/12/09 03:06:43;;;;;;;17.03;9.87;;;1.50;99.90;;;;;;4714056;30;20096;-82
2021/12/09 03:09:15;;;;;;;18.83;11.23;;;1.50;99.90;;;;;;4686333;30;20085;-82
2021/12/09 03:11:42;;;;;;;18.52;11.57;;;1.50;99.90;;;;;;4685261;30;20072;-82
2021/12/09 03:14:09;;;;;;;20.77;10.63;;;1.50;99.90;;;;;;4699336;30;20053;-83
2021/12/09 03:16:35;;;;;;;18.37;11.10;;;1.50;99.90;;;;;;4700504;30;20289;-83
2021/12/09 03:19:06;;;;;;;18.73;10.93;;;1.50;99.90;;;;;;4689441;30;20041;-83
2021/12/09 03:21:38;;;;;;;16.00;10.73;;;1.50;99.90;;;;;;4702825;30;20049;-83
2021/12/09 03:24:08;;;;;;;19.83;11.30;;;1.50;99.90;;;;;;4702650;30;20044;-82
2021/12/09 03:26:42;;;;;;;17.93;10.73;;;1.50;99.90;;;;;;4702856;30;20064;-82
2021/12/09 03:29:11;;;;;;;15.70;11.00;;;1.50;99.90;;;;;;4702071;30;20061;-82
2021/12/09 03:31:39;;;;;;;16.17;10.83;;;1.50;99.90;;;;;;4711634;30;20065;-82
2021/12/09 03:34:06;;;;;;;17.90;11.73;;;1.50;99.90;;;;;;4702965;30;20380;-82
2021/12/09 03:36:32;;;;;;;19.57;11.40;;;1.50;99.90;;;;;;4717108;30;20789;-82
2021/12/09 03:39:00;;;;;;;18.57;11.87;;;1.50;99.90;;;;;;4716723;30;20087;-82
2021/12/09 03:41:27;;;;;;;19.50;11.23;;;1.50;99.90;;;;;;4701721;30;20495;-82
2021/12/09 03:43:53;;;;;;;18.87;10.90;;;1.40;99.90;;;;;;4706815;30;20504;-82
2021/12/09 03:46:20;;;;;;;18.53;11.50;;;1.40;99.90;;;;;;4716977;30;20037;-82
2021/12/09 03:48:48;;;;;;;19.33;12.30;;;1.40;99.90;;;;;;4687618;30;20052;-82
2021/12/09 03:51:14;;;;;;;20.40;11.50;;;1.40;99.90;;;;;;4716399;30;20057;-82
2021/12/09 03:53:40;;;;;;;19.67;11.60;;;1.40;99.90;;;;;;4687310;30;20055;-82
2021/12/09 03:56:05;;;;;;;21.80;11.60;;;1.40;99.90;;;;;;4690301;30;20046;-82
2021/12/09 03:58:32;;;;;;;20.53;11.20;;;1.40;99.90;;;;;;4708290;30;20045;-82
2021/12/09 04:00:57;;;;;;;19.97;11.37;;;1.40;99.90;;;;;;4719741;30;20492;-82
2021/12/09 04:03:24;;;;;;;20.03;12.07;;;1.40;99.90;;;;;;4719972;30;20386;-82
2021/12/09 04:05:50;;;;;;;20.10;11.53;;;1.30;99.90;;;;;;4705515;30;20113;-82
2021/12/09 04:08:17;;;;;;;18.13;11.40;;;1.30;99.90;;;;;;4705706;30;20048;-82
2021/12/09 04:10:44;;;;;;;21.93;12.57;;;1.30;99.90;;;;;;4719724;30;20049;-82
2021/12/09 04:13:10;;;;;;;19.77;11.67;;;1.30;99.90;;;;;;4705098;30;20053;-82
2021/12/09 04:15:36;;;;;;;19.03;11.93;;;1.30;99.90;;;;;;4718123;30;20298;-82
2021/12/09 04:18:03;;;;;;;22.23;12.33;;;1.30;99.90;;;;;;4706941;30;20418;-82
2021/12/09 04:20:29;;;;;;;21.17;12.43;;;1.30;99.90;;;;;;4705095;30;20049;-82
2021/12/09 04:22:56;;;;;;;19.53;12.20;;;1.30;99.90;;;;;;4719641;30;20310;-82
2021/12/09 04:25:24;;;;;;;20.00;12.17;;;1.20;99.90;;;;;;4719631;30;20665;-82
2021/12/09 04:27:51;;;;;;;20.27;11.63;;;1.20;99.90;;;;;;4705174;30;20684;-82
2021/12/09 04:30:17;;;;;;;18.23;12.03;;;1.20;99.90;;;;;;4719331;30;20143;-82
2021/12/09 04:32:44;;;;;;;16.20;11.50;;;1.10;99.90;;;;;;4704714;30;20369;-82
2021/12/09 04:35:11;;;;;;;18.77;12.33;;;1.20;99.90;;;;;;4704279;30;20299;-82
2021/12/09 04:37:38;;;;;;;19.73;11.97;;;1.10;99.90;;;;;;4704559;30;20696;-82
2021/12/09 04:40:06;;;;;;;18.37;12.03;;;1.00;99.90;;;;;;4706616;30;20324;-82
2021/12/09 04:42:32;;;;;;;21.77;12.47;;;1.00;99.90;;;;;;4713090;30;20299;-82
2021/12/09 04:44:57;;;;;;;17.83;11.37;;;1.10;99.90;;;;;;4715483;30;20284;-82
2021/12/09 04:47:23;;;;;;;21.00;11.63;;;1.10;99.90;;;;;;4710308;30;20041;-82
2021/12/09 04:49:49;;;;;;;21.50;12.37;;;1.00;99.90;;;;;;4687555;30;20069;-82
2021/12/09 04:52:15;;;;;;;22.63;11.93;;;1.00;99.90;;;;;;4700240;30;20089;-83
2021/12/09 04:54:41;;;;;;;18.27;11.23;;;1.00;99.90;;;;;;4684645;30;20048;-82
2021/12/09 04:57:09;;;;;;;19.83;11.60;;;1.00;99.90;;;;;;4684018;30;20041;-82
2021/12/09 04:59:35;;;;;;;20.57;12.27;;;0.90;99.90;;;;;;4692499;30;20385;-82
2021/12/09 05:02:01;;;;;;;20.67;11.27;;;0.90;99.90;;;;;;4704084;30;20677;-82
2021/12/09 05:04:28;;;;;;;18.10;12.50;;;0.80;99.90;;;;;;4702929;30;20080;-82
2021/12/09 05:06:54;;;;;;;21.17;12.23;;;0.80;99.90;;;;;;4701388;30;20816;-82
2021/12/09 05:09:20;;;;;;;24.33;11.50;;;0.90;99.90;;;;;;4700388;30;20295;-82
2021/12/09 05:14:15;;;;;;;17.57;11.47;;;0.80;99.90;;;;;;4712968;30;20055;-82
2021/12/09 05:16:41;;;;;;;19.67;13.00;;;0.70;99.90;;;;;;4689997;30;20872;-82
2021/12/09 05:19:07;;;;;;;19.03;11.73;;;0.70;99.90;;;;;;4704204;30;20292;-82
2021/12/09 05:21:37;;;;;;;20.10;11.53;;;0.70;99.90;;;;;;4686849;30;20373;-82
2021/12/09 05:24:14;;;;;;;19.40;12.60;;;0.70;99.90;;;;;;4686924;30;20081;-82
2021/12/09 05:26:46;;;;;;;20.73;11.23;;;0.60;99.90;;;;;;4701326;30;20121;-82
2021/12/09 05:29:13;;;;;;;22.25;12.02;;;0.60;99.90;;;;;;4701221;30;20308;-82
2021/12/09 05:34:24;;;;;;;22.90;13.10;;;0.60;99.90;;;;;;4660036;30;20305;-82
2021/12/09 05:36:50;;;;;;;21.43;11.93;;;0.60;99.90;;;;;;4669512;30;20874;-82
2021/12/09 05:39:17;;;;;;;20.73;12.23;;;0.60;99.90;;;;;;4669531;30;20054;-82
2021/12/09 05:41:44;;;;;;;19.97;11.87;;;0.60;99.90;;;;;;4669298;30;20328;-82
2021/12/09 05:44:10;;;;;;;21.00;12.17;;;0.50;99.90;;;;;;4683455;30;20293;-82
2021/12/09 05:46:39;;;;;;;35.80;20.77;;;0.50;99.90;;;;;;4703857;30;20291;-82
2021/12/09 05:49:06;;;;;;;35.80;19.00;;;0.50;99.90;;;;;;4718178;30;20610;-82
2021/12/09 05:51:32;;;;;;;25.03;14.97;;;0.50;99.90;;;;;;4686747;30;20297;-82
2021/12/09 05:53:58;;;;;;;28.67;14.07;;;0.50;99.90;;;;;;4713069;30;20658;-82
2021/12/09 05:56:24;;;;;;;21.57;14.00;;;0.60;99.90;;;;;;4686528;30;20292;-80
2021/12/09 05:58:49;;;;;;;23.33;14.50;;;0.60;99.90;;;;;;4703792;30;20457;-80
2021/12/09 06:01:15;;;;;;;24.07;14.07;;;0.60;99.90;;;;;;4688851;30;20048;-80
2021/12/09 06:03:42;;;;;;;25.83;13.97;;;0.70;99.90;;;;;;4698852;30;20046;-80
2021/12/09 06:06:08;;;;;;;27.93;15.13;;;0.70;99.90;;;;;;4690666;30;20303;-80
2021/12/09 06:08:36;;;;;;;23.70;14.17;;;0.70;99.90;;;;;;4697207;30;20715;-80
2021/12/09 06:11:04;;;;;;;25.80;14.03;;;0.80;99.90;;;;;;4700282;30;20297;-80
2021/12/09 06:13:32;;;;;;;25.47;13.93;;;0.70;99.90;;;;;;4700436;30;20375;-80
2021/12/09 06:15:59;;;;;;;25.20;13.63;;;0.80;99.90;;;;;;4692427;30;20300;-80
2021/12/09 06:18:25;;;;;;;23.97;14.00;;;0.80;99.90;;;;;;4699825;30;20299;-80
2021/12/09 06:20:51;;;;;;;24.07;13.80;;;0.80;99.90;;;;;;4700142;30;20682;-81
2021/12/09 06:23:16;;;;;;;24.07;13.77;;;0.80;99.90;;;;;;4708912;30;20327;-80
2021/12/09 06:25:42;;;;;;;23.97;14.30;;;0.80;99.90;;;;;;4702918;30;20049;-81
2021/12/09 06:28:08;;;;;;;25.80;14.40;;;0.80;99.90;;;;;;4703080;30;20048;-80
2021/12/09 06:30:34;;;;;;;23.80;13.37;;;0.80;99.90;;;;;;4701732;30;20061;-80
2021/12/09 06:33:01;;;;;;;22.63;13.33;;;0.80;99.90;;;;;;4701701;30;20084;-81
2021/12/09 06:35:27;;;;;;;23.57;14.43;;;0.80;99.90;;;;;;4712288;30;20293;-80
2021/12/09 06:37:56;;;;;;;24.20;14.83;;;0.80;99.90;;;;;;4688507;30;20828;-80
2021/12/09 06:40:23;;;;;;;29.00;14.87;;;0.80;99.90;;;;;;4685302;30;20327;-80
2021/12/09 06:42:50;;;;;;;27.30;15.10;;;0.80;99.90;;;;;;4685329;30;20288;-80
2021/12/09 06:45:18;;;;;;;25.10;15.17;;;0.90;99.90;;;;;;4696526;30;20303;-80
2021/12/09 06:47:45;;;;;;;28.30;17.17;;;0.90;99.90;;;;;;4685541;30;20296;-80
2021/12/09 06:50:14;;;;;;;28.97;15.77;;;0.90;99.90;;;;;;4702457;30;20292;-80
2021/12/09 06:52:40;;;;;;;22.77;14.30;;;0.90;99.90;;;;;;4691993;30;20376;-80
2021/12/09 06:55:09;;;;;;;26.83;14.47;;;0.90;99.90;;;;;;4692746;30;20320;-80
2021/12/09 06:57:36;;;;;;;23.77;13.73;;;0.90;99.90;;;;;;4686659;30;20650;-80
2021/12/09 07:00:07;;;;;;;25.80;14.97;;;0.90;99.90;;;;;;4689879;30;20374;-81
2021/12/09 07:02:33;;;;;;;28.97;14.73;;;0.90;99.90;;;;;;4684641;30;20320;-80
2021/12/09 07:04:59;;;;;;;20.63;13.07;;;0.80;99.90;;;;;;4697830;30;20342;-80
2021/12/09 07:07:24;;;;;;;21.90;13.67;;;0.80;99.90;;;;;;4699836;30;20068;-80
2021/12/09 07:09:50;;;;;;;27.57;15.43;;;0.80;99.90;;;;;;4677044;30;20053;-80
2021/12/09 07:12:16;;;;;;;26.87;14.90;;;0.80;99.90;;;;;;4670264;30;20041;-80
2021/12/09 07:14:43;;;;;;;28.67;15.07;;;0.80;99.90;;;;;;4700125;30;20053;-80
2021/12/09 07:17:10;;;;;;;29.57;17.57;;;0.80;99.90;;;;;;4682602;30;20046;-81
2021/12/09 07:19:37;;;;;;;28.40;15.47;;;0.80;99.90;;;;;;4694003;30;20371;-80
2021/12/09 07:22:04;;;;;;;31.43;16.47;;;0.80;99.90;;;;;;4692335;30;20317;-80
2021/12/09 07:24:30;;;;;;;28.37;15.13;;;0.80;99.90;;;;;;4684295;30;20296;-80
2021/12/09 07:26:57;;;;;;;34.83;17.27;;;0.90;99.90;;;;;;4670795;30;20820;-81
2021/12/09 07:29:24;;;;;;;28.83;17.27;;;0.90;99.90;;;;;;4687692;30;20304;-79
2021/12/09 07:31:50;;;;;;;28.13;16.07;;;0.90;99.90;;;;;;4696978;30;20355;-79
2021/12/09 07:34:16;;;;;;;26.03;15.57;;;0.90;99.90;;;;;;4668434;30;20411;-78
2021/12/09 07:36:43;;;;;;;28.67;16.50;;;0.90;99.90;;;;;;4682451;30;20320;-79
2021/12/09 07:39:09;;;;;;;24.43;15.50;;;0.90;99.90;;;;;;4689298;30;20689;-79
2021/12/09 07:41:35;;;;;;;24.17;14.63;;;0.70;99.90;;;;;;4698090;30;20362;-78
2021/12/09 07:44:02;;;;;;;25.97;14.17;;;0.80;99.90;;;;;;4674764;30;20805;-79
2021/12/09 07:46:29;;;;;;;25.00;14.83;;;0.90;99.90;;;;;;4709294;30;20081;-79
2021/12/09 07:48:55;;;;;;;29.20;14.33;;;0.80;99.90;;;;;;4703200;30;20294;-79
2021/12/09 07:51:21;;;;;;;24.87;13.40;;;0.80;99.90;;;;;;4686294;30;20308;-79
2021/12/09 07:53:47;;;;;;;20.90;12.87;;;0.70;99.90;;;;;;4697911;30;20058;-79
2021/12/09 07:56:12;;;;;;;26.13;14.47;;;0.70;99.90;;;;;;4670756;30;20304;-79
2021/12/09 07:58:38;;;;;;;29.13;15.03;;;0.70;99.90;;;;;;4696969;30;20052;-79
2021/12/09 08:01:05;;;;;;;27.53;14.57;;;0.70;99.90;;;;;;4685424;30;20053;-79
2021/12/09 08:03:30;;;;;;;24.63;14.77;;;0.80;99.90;;;;;;4687763;30;20048;-79
2021/12/09 08:05:56;;;;;;;23.50;14.30;;;0.80;99.90;;;;;;4682893;30;20289;-80
2021/12/09 08:08:22;;;;;;;23.50;13.53;;;0.80;99.90;;;;;;4689017;30;20042;-79
2021/12/09 08:10:48;;;;;;;21.27;13.40;;;0.80;99.90;;;;;;4695459;30;20288;-79
2021/12/09 08:13:17;;;;;;;24.50;13.43;;;0.90;99.90;;;;;;4684677;30;20061;-79
2021/12/09 08:15:48;;;;;;;28.80;15.10;;;0.90;99.90;;;;;;4667460;30;20359;-79
2021/12/09 08:20:49;;;;;;;28.13;13.40;;;1.00;99.90;;;;;;4700428;30;20049;-82
2021/12/09 08:23:15;;;;;;;27.50;13.70;;;1.00;99.90;;;;;;4688153;30;20809;-82
2021/12/09 08:25:41;;;;;;;27.77;14.07;;;1.00;99.90;;;;;;4691441;30;21017;-81
2021/12/09 08:28:07;;;;;;;26.00;13.37;;;1.10;99.90;;;;;;4682985;30;20288;-81
2021/12/09 08:30:33;;;;;;;23.60;12.77;;;1.00;99.90;;;;;;4681092;30;20908;-81
2021/12/09 08:33:00;;;;;;;22.60;13.00;;;1.10;99.90;;;;;;4684277;30;20085;-81
2021/12/09 08:35:26;;;;;;;27.00;13.10;;;1.10;99.90;;;;;;4669287;30;20074;-82
2021/12/09 08:37:56;;;;;;;24.47;13.23;;;1.10;99.90;;;;;;4668515;30;20308;-82
2021/12/09 08:40:23;;;;;;;21.83;12.07;;;1.20;99.90;;;;;;4679309;30;20835;-82
2021/12/09 08:42:51;;;;;;;22.90;13.50;;;1.20;99.90;;;;;;4680419;30;20289;-82
2021/12/09 08:45:19;;;;;;;27.23;12.83;;;1.20;99.90;;;;;;4684856;30;20634;-82
2021/12/09 08:47:46;;;;;;;24.13;13.27;;;1.30;99.90;;;;;;4670161;30;20303;-82
2021/12/09 08:50:19;;;;;;;25.63;12.83;;;1.40;99.90;;;;;;4684853;30;20318;-82
2021/12/09 08:52:49;;;;;;;25.53;12.33;;;1.40;99.90;;;;;;4679764;30;20378;-83
2021/12/09 08:55:17;;;;;;;21.90;12.90;;;1.40;99.90;;;;;;4695800;30;20300;-82
2021/12/09 08:57:43;;;;;;;21.83;12.10;;;1.50;99.90;;;;;;4697860;30;20790;-82
2021/12/09 09:00:13;;;;;;;27.70;13.33;;;1.50;99.90;;;;;;4682054;30;20303;-83
2021/12/09 09:02:41;;;;;;;17.30;11.30;;;1.60;99.90;;;;;;4680933;30;20853;-84
2021/12/09 09:05:10;;;;;;;23.83;13.30;;;1.60;99.90;;;;;;4683061;30;20304;-82
2021/12/09 09:07:37;;;;;;;21.93;11.77;;;1.60;99.90;;;;;;4692952;30;20045;-79
2021/12/09 09:10:04;;;;;;;19.10;12.30;;;1.60;99.90;;;;;;4661498;30;20642;-79
2021/12/09 09:12:30;;;;;;;26.10;11.70;;;1.60;99.90;;;;;;4673963;30;20783;-80
2021/12/09 09:14:56;;;;;;;20.93;12.40;;;1.70;99.90;;;;;;4674164;30;20379;-80
2021/12/09 09:17:22;;;;;;;20.73;12.17;;;1.80;99.90;;;;;;4671079;30;20059;-80
2021/12/09 09:19:47;;;;;;;21.73;12.20;;;1.70;99.90;;;;;;4693529;30;20124;-79
2021/12/09 09:22:13;;;;;;;24.43;12.27;;;1.80;99.90;;;;;;4662550;30;20054;-80
2021/12/09 09:24:40;;;;;;;19.93;11.10;;;1.90;99.90;;;;;;4680081;30;20057;-79
2021/12/09 09:27:06;;;;;;;25.43;12.10;;;1.80;99.90;;;;;;4667963;30;20085;-79
2021/12/09 09:29:34;;;;;;;19.93;11.40;;;1.90;99.90;;;;;;4686578;30;20305;-79
2021/12/09 09:32:00;;;;;;;21.67;11.83;;;1.90;99.90;;;;;;4677542;30;20073;-79
2021/12/09 09:34:26;;;;;;;19.27;10.83;;;2.00;99.90;;;;;;4692467;30;20751;-79
2021/12/09 09:36:52;;;;;;;24.03;11.53;;;2.00;99.90;;;;;;4675665;30;20300;-79
2021/12/09 09:39:19;;;;;;;20.53;10.57;;;2.10;99.90;;;;;;4690410;30;20065;-79
2021/12/09 09:41:58;;;;;;;19.20;10.97;;;2.20;99.90;;;;;;4690697;30;20152;-79
2021/12/09 09:44:31;;;;;;;18.70;10.53;;;2.10;99.90;;;;;;4691124;30;20057;-79
2021/12/09 09:47:03;;;;;;;16.70;9.67;;;2.20;99.90;;;;;;4678992;30;22066;-79
2021/12/09 09:49:30;;;;;;;15.95;9.27;;;2.30;99.90;;;;;;4676347;30;20143;-79
2021/12/09 09:52:00;;;;;;;19.73;10.10;;;2.30;99.90;;;;;;4678173;30;20488;-79
2021/12/09 09:54:25;;;;;;;16.10;9.23;;;2.40;99.90;;;;;;4648619;30;20476;-79
2021/12/09 09:56:52;;;;;;;16.97;9.77;;;2.40;99.90;;;;;;4664470;30;20347;-78
2021/12/09 09:59:18;;;;;;;21.33;9.93;;;2.50;99.90;;;;;;4692439;30;20062;-79
2021/12/09 10:01:46;;;;;;;19.77;10.57;;;2.50;99.90;;;;;;4676354;30;20356;-79
2021/12/09 10:04:22;;;;;;;19.60;9.67;;;2.60;99.90;;;;;;4691300;30;20120;-79
2021/12/09 10:06:49;;;;;;;15.23;9.97;;;2.60;99.90;;;;;;4693414;30;20507;-80
2021/12/09 10:09:16;;;;;;;16.10;9.73;;;2.70;99.90;;;;;;4665600;30;20066;-79
2021/12/09 10:11:43;;;;;;;17.83;9.70;;;2.70;99.90;;;;;;4692693;30;20053;-79
2021/12/09 10:14:10;;;;;;;18.67;9.70;;;2.80;99.90;;;;;;4678731;30;20085;-79
2021/12/09 10:16:38;;;;;;;16.37;9.10;;;2.90;99.90;;;;;;4692108;30;20053;-79
2021/12/09 10:19:17;;;;;;;18.17;9.33;;;2.90;99.90;;;;;;4692094;30;20053;-79
2021/12/09 10:21:44;;;;;;;15.23;9.03;;;3.00;99.90;;;;;;4692287;30;20061;-79
2021/12/09 10:24:10;;;;;;;15.40;9.00;;;3.00;99.90;;;;;;4691777;30;20150;-79
2021/12/09 10:26:41;;;;;;;17.17;8.37;;;3.10;99.90;;;;;;4678993;30;20054;-79
2021/12/09 10:29:25;;;;;;;15.52;8.98;;;3.10;99.90;;;;;;4676164;30;20748;-79
2021/12/09 10:31:59;;;;;;;13.90;7.97;;;3.20;99.90;;;;;;4693154;30;20123;-79
2021/12/09 10:34:41;;;;;;;16.10;7.97;;;3.20;99.90;;;;;;4677397;30;20081;-79
2021/12/09 10:37:11;;;;;;;;;;;3.20;99.90;;;;;;4688320;30;20061;-83
2021/12/09 10:39:46;;;;;;;17.73;7.90;;;3.30;99.90;;;;;;4676021;30;19954;-79
2021/12/09 10:42:29;;;;;;;15.77;9.27;;;3.30;99.90;;;;;;4677988;30;20050;-79
2021/12/09 10:45:06;;;;;;;14.83;8.00;;;3.30;99.90;;;;;;4691777;30;20046;-79
2021/12/09 10:53:33;;;;;;;18.03;8.90;;;3.30;99.90;;;;;;4685073;30;20480;-79
2021/12/09 10:56:10;;;;;;;13.20;7.67;;;3.40;99.90;;;;;;4676878;30;20122;-78
2021/12/09 10:58:41;;;;;;;16.93;8.60;;;3.30;99.90;;;;;;4692443;30;20057;-79
2021/12/09 11:01:10;;;;;;;14.33;8.30;;;3.40;99.90;;;;;;4692078;30;20098;-79
2021/12/09 11:03:46;;;;;;;16.77;8.43;;;3.40;99.90;;;;;;4691498;30;20118;-79
2021/12/09 11:06:19;;;;;;;16.43;9.03;;;3.40;99.90;;;;;;4690541;30;20477;-79
2021/12/09 11:08:56;;;;;;;12.93;8.27;;;3.50;99.90;;;;;;4690262;30;20427;-78
2021/12/09 11:11:30;;;;;;;15.13;8.70;;;3.50;99.90;;;;;;4688766;30;20132;-79
2021/12/09 11:14:00;;;;;;;13.87;9.20;;;3.50;99.90;;;;;;4677398;30;20068;-79
2021/12/09 11:16:32;;;;;;;18.07;9.43;;;3.50;99.90;;;;;;4690952;30;20388;-79
2021/12/09 11:19:09;;;;;;;;;;;3.50;99.90;;;;;;4694023;30;20375;-79
2021/12/09 11:21:41;;;;;;;18.47;9.80;;;3.40;99.90;;;;;;4691480;30;19931;-79
2021/12/09 11:24:12;;;;;;;18.02;10.05;;;3.40;99.90;;;;;;4673200;30;20045;-79
2021/12/09 11:26:57;;;;;;;21.93;10.57;;;3.40;99.90;;;;;;4674244;30;20099;-79
2021/12/09 11:29:24;;;;;;;;;;;3.40;99.90;;;;;;4701173;30;20049;-79
2021/12/09 11:34:42;;;;;;;20.40;11.13;;;3.40;99.90;;;;;;4697352;30;20060;-78
2021/12/09 11:37:34;;;;;;;22.37;10.37;;;3.40;99.90;;;;;;4695531;30;20570;-78
2021/12/09 11:39:58;;;;;;;19.90;11.23;;;3.40;99.90;;;;;;4695416;30;20054;-78
2021/12/09 11:42:47;;;;;;;25.87;11.63;;;3.40;99.90;;;;;;4671968;30;20453;-79
2021/12/09 11:45:17;;;;;;;19.27;11.00;;;3.40;99.90;;;;;;4688674;30;20107;-79
2021/12/09 11:47:45;;;;;;;22.83;12.47;;;3.50;99.90;;;;;;4677368;30;20410;-79
2021/12/09 11:50:19;;;;;;;18.57;11.70;;;3.60;99.90;;;;;;4690900;30;20050;-79
2021/12/09 11:52:47;;;;;;;25.53;11.83;;;3.60;99.90;;;;;;4673995;30;20050;-79
2021/12/09 11:55:16;;;;;;;21.30;11.73;;;3.50;99.90;;;;;;4687317;30;20567;-78
2021/12/09 11:57:45;;;;;;;24.53;11.97;;;3.50;99.90;;;;;;4703069;30;20112;-78
2021/12/09 12:07:08;;;;;;;19.63;11.40;;;3.60;99.90;;;;;;4686699;30;20045;-80
2021/12/09 12:12:33;;;;;;;19.90;10.43;;;3.60;99.90;;;;;;4689523;30;20053;-79
2021/12/09 12:15:26;;;;;;;22.10;11.37;;;3.70;99.90;;;;;;4676307;30;20080;-79
2021/12/09 12:23:45;;;;;;;18.80;10.83;;;3.60;99.90;;;;;;4691690;30;20124;-79
2021/12/09 12:26:58;;;;;;;21.67;11.10;;;3.60;99.90;;;;;;4680159;30;20045;-79
2021/12/09 12:38:10;;;;;;;20.73;11.80;;;3.70;99.90;;;;;;4692622;30;20049;-79
2021/12/09 12:40:57;;;;;;;21.43;11.40;;;3.70;99.90;;;;;;4679499;30;20056;-79
2021/12/09 12:43:42;;;;;;;20.40;11.27;;;3.70;99.90;;;;;;4693188;30;20049;-79
2021/12/09 12:49:51;;;;;;;24.83;11.33;;;3.70;99.90;;;;;;4689764;30;20124;-79
2021/12/09 12:52:27;;;;;;;23.47;12.07;;;3.70;99.90;;;;;;4691491;30;20056;-80
2021/12/09 12:55:12;;;;;;;19.07;10.40;;;3.70;99.90;;;;;;4679852;30;20072;-78
2021/12/09 12:57:50;;;;;;;20.13;11.30;;;3.70;99.90;;;;;;4692125;30;20056;-78
2021/12/09 13:00:24;;;;;;;21.37;11.33;;;3.70;99.90;;;;;;4691975;30;20112;-78
2021/12/09 13:05:59;;;;;;;19.27;11.50;;;3.70;99.90;;;;;;4657851;30;20132;-78
2021/12/09 13:09:10;;;;;;;18.83;11.40;;;3.70;99.90;;;;;;4663979;30;20041;-78
2021/12/09 13:11:43;;;;;;;22.38;12.20;;;3.70;99.90;;;;;;4691045;30;20520;-79
2021/12/09 13:14:23;;;;;;;18.63;11.23;;;3.70;99.90;;;;;;4691593;30;20048;-79
2021/12/09 13:20:10;;;;;;;21.07;11.47;;;3.70;99.90;;;;;;4689963;30;20058;-79
2021/12/09 13:22:42;;;;;;;23.83;12.17;;;3.70;99.90;;;;;;4677853;30;20149;-79
2021/12/09 13:25:22;;;;;;;26.07;12.37;;;3.70;99.90;;;;;;4668878;30;20204;-79
2021/12/09 13:28:03;;;;;;;25.03;11.77;;;3.80;99.90;;;;;;4679957;30;20325;-79
2021/12/09 13:31:02;;;;;;;25.33;12.27;;;3.80;99.90;;;;;;4675624;30;20112;-79
2021/12/09 13:47:33;;;;;;;28.53;13.33;;;3.90;99.90;;;;;;4690276;30;20054;-79
2021/12/09 13:50:22;;;;;;;30.77;13.80;;;3.90;99.90;;;;;;4691649;30;20127;-78
2021/12/09 13:55:18;;;;;;;23.77;13.53;;;3.90;99.90;;;;;;4677252;30;20068;-79
2021/12/09 13:57:45;;;;;;;30.20;13.73;;;3.90;99.90;;;;;;4677569;30;20037;-78